createdAt,value
2023-04-16T00:01:02.285Z,28.73
2023-04-16T00:03:28.812Z,28.47
2023-04-16T00:05:59.249Z,28.60
2023-04-16T00:08:25.682Z,27.57
2023-04-16T00:10:53.465Z,30.27
2023-04-16T00:13:20.024Z,30.17
2023-04-16T00:15:46.513Z,29.60
2023-04-16T00:18:12.990Z,31.47
2023-04-16T00:20:39.654Z,31.60
2023-04-16T00:23:06.242Z,30.70
2023-04-16T00:25:32.689Z,31.87
2023-04-16T00:27:59.121Z,30.57
2023-04-16T00:30:25.620Z,31.93
2023-04-16T00:32:52.075Z,30.40
2023-04-16T00:35:18.618Z,31.70
2023-04-16T00:37:45.119Z,34.17
2023-04-16T00:40:11.878Z,33.70
2023-04-16T00:42:38.362Z,31.00
2023-04-16T00:45:05.708Z,31.00
2023-04-16T00:47:32.339Z,31.50
2023-04-16T00:49:59.067Z,29.97
2023-04-16T00:52:26.565Z,29.27
2023-04-16T00:54:53.970Z,30.20
2023-04-16T00:57:23.794Z,31.43
2023-04-16T00:59:51.425Z,32.13
2023-04-16T01:02:18.049Z,32.30
2023-04-16T01:04:44.540Z,32.97
2023-04-16T01:07:11.259Z,31.73
2023-04-16T01:09:37.699Z,32.90
2023-04-16T01:12:04.260Z,34.50
2023-04-16T01:14:36.115Z,32.03
2023-04-16T01:17:03.832Z,31.80
2023-04-16T01:19:36.170Z,33.67
2023-04-16T01:22:03.609Z,34.50
2023-04-16T01:24:30.428Z,33.00
2023-04-16T01:27:00.132Z,32.77
2023-04-16T01:29:27.228Z,35.30
2023-04-16T01:31:54.324Z,32.77
2023-04-16T01:34:20.885Z,32.67
2023-04-16T01:36:47.322Z,30.30
2023-04-16T01:39:15.674Z,33.10
2023-04-16T01:41:43.713Z,29.97
2023-04-16T01:44:10.316Z,30.00
2023-04-16T01:46:38.157Z,28.10
2023-04-16T01:49:05.830Z,28.03
2023-04-16T01:51:32.430Z,28.63
2023-04-16T01:53:59.055Z,27.20
2023-04-16T01:56:25.909Z,26.23
2023-04-16T01:58:53.174Z,26.13
2023-04-16T02:01:20.002Z,26.70
2023-04-16T02:03:47.519Z,24.87
2023-04-16T02:06:14.770Z,27.17
2023-04-16T02:08:41.707Z,26.47
2023-04-16T02:11:08.217Z,28.20
2023-04-16T02:13:34.836Z,28.93
2023-04-16T02:16:02.520Z,30.13
2023-04-16T02:18:29.122Z,31.87
2023-04-16T02:20:58.444Z,31.70
2023-04-16T02:23:24.895Z,31.07
2023-04-16T02:25:51.603Z,31.03
2023-04-16T02:28:18.121Z,31.87
2023-04-16T02:30:44.611Z,33.27
2023-04-16T02:33:12.441Z,33.00
2023-04-16T02:35:39.781Z,35.60
2023-04-16T02:38:07.156Z,34.30
2023-04-16T02:40:34.070Z,34.83
2023-04-16T02:43:00.757Z,36.83
2023-04-16T02:45:27.387Z,34.90
2023-04-16T02:47:54.058Z,34.77
2023-04-16T02:50:20.696Z,36.90
2023-04-16T02:52:47.186Z,38.77
2023-04-16T02:55:13.644Z,38.73
2023-04-16T02:57:40.761Z,36.80
2023-04-16T03:00:09.041Z,37.37
2023-04-16T03:02:35.570Z,39.20
2023-04-16T03:05:02.992Z,40.17
2023-04-16T03:07:29.535Z,39.50
2023-04-16T03:09:56.006Z,39.70
2023-04-16T03:12:22.467Z,39.40
2023-04-16T03:14:51.318Z,39.37
2023-04-16T03:17:17.914Z,38.03
2023-04-16T03:19:44.347Z,37.83
2023-04-16T03:22:10.782Z,38.10
2023-04-16T03:24:38.149Z,38.40
2023-04-16T03:27:04.553Z,38.63
2023-04-16T03:29:31.025Z,36.20
2023-04-16T03:31:57.668Z,41.30
2023-04-16T03:34:24.074Z,40.00
2023-04-16T03:36:50.554Z,41.23
2023-04-16T03:39:17.072Z,41.20
2023-04-16T03:41:43.455Z,40.57
2023-04-16T03:44:09.867Z,39.20
2023-04-16T03:46:36.465Z,39.20
2023-04-16T03:49:02.990Z,37.40
2023-04-16T03:51:29.428Z,36.90
2023-04-16T03:53:56.006Z,35.53
2023-04-16T03:56:22.512Z,34.53
2023-04-16T03:58:49.037Z,34.67
2023-04-16T04:01:15.419Z,37.00
2023-04-16T04:03:42.027Z,35.47
2023-04-16T04:06:09.289Z,36.97
2023-04-16T04:08:35.774Z,37.30
2023-04-16T04:11:02.268Z,34.27
2023-04-16T04:13:28.668Z,35.90
2023-04-16T04:15:55.270Z,35.03
2023-04-16T04:18:21.818Z,35.20
2023-04-16T04:20:48.302Z,34.30
2023-04-16T04:23:14.856Z,34.87
2023-04-16T04:25:41.368Z,34.67
2023-04-16T04:28:07.875Z,34.10
2023-04-16T04:30:35.799Z,34.57
2023-04-16T04:33:02.372Z,34.53
2023-04-16T04:35:29.087Z,36.27
2023-04-16T04:37:55.679Z,33.20
2023-04-16T04:40:22.348Z,36.60
2023-04-16T04:42:48.916Z,34.43
2023-04-16T04:45:16.018Z,37.30
2023-04-16T04:47:42.536Z,36.03
2023-04-16T04:50:09.574Z,35.30
2023-04-16T04:52:36.318Z,36.13
2023-04-16T04:55:02.763Z,36.57
2023-04-16T04:57:29.152Z,37.00
2023-04-16T04:59:55.613Z,37.30
2023-04-16T05:02:22.172Z,37.50
2023-04-16T05:04:48.801Z,36.83
2023-04-16T05:07:15.298Z,37.17
2023-04-16T05:09:41.713Z,39.23
2023-04-16T05:12:08.457Z,38.57
2023-04-16T05:14:36.272Z,37.63
2023-04-16T05:17:02.883Z,36.60
2023-04-16T05:19:29.415Z,37.10
2023-04-16T05:21:56.275Z,38.03
2023-04-16T05:24:23.122Z,33.90
2023-04-16T05:26:49.605Z,33.63
2023-04-16T05:29:16.053Z,33.90
2023-04-16T05:31:42.543Z,33.10
2023-04-16T05:34:08.981Z,32.40
2023-04-16T05:36:35.436Z,31.47
2023-04-16T05:39:02.006Z,31.20
2023-04-16T05:41:28.544Z,29.90
2023-04-16T05:43:55.247Z,29.40
2023-04-16T05:46:21.647Z,28.27
2023-04-16T05:48:48.060Z,28.67
2023-04-16T05:51:14.537Z,26.27
2023-04-16T05:53:41.024Z,26.67
2023-04-16T05:56:07.895Z,27.67
2023-04-16T05:58:34.330Z,27.40
2023-04-16T06:01:01.423Z,25.53
2023-04-16T06:03:28.041Z,24.67
2023-04-16T06:05:54.666Z,25.43
2023-04-16T06:08:21.293Z,24.53
2023-04-16T06:10:47.897Z,24.50
2023-04-16T06:13:14.801Z,24.57
2023-04-16T06:15:41.270Z,22.67
2023-04-16T06:18:07.814Z,23.27
2023-04-16T06:20:34.322Z,23.90
2023-04-16T06:23:00.997Z,22.90
2023-04-16T06:25:27.441Z,23.20
2023-04-16T06:27:53.886Z,21.23
2023-04-16T06:30:20.518Z,22.40
2023-04-16T06:32:47.933Z,23.57
2023-04-16T06:35:14.679Z,22.73
2023-04-16T06:37:41.468Z,25.10
2023-04-16T06:40:08.483Z,24.47
2023-04-16T06:42:34.991Z,25.37
2023-04-16T06:45:01.616Z,25.23
2023-04-16T06:47:28.154Z,25.03
2023-04-16T06:49:54.643Z,25.67
2023-04-16T06:52:21.194Z,24.57
2023-04-16T06:54:48.502Z,27.07
2023-04-16T06:57:15.018Z,24.00
2023-04-16T06:59:41.772Z,22.97
2023-04-16T07:02:10.609Z,23.90
2023-04-16T07:04:37.301Z,23.40
2023-04-16T07:07:03.985Z,24.10
2023-04-16T07:09:30.530Z,22.07
2023-04-16T07:11:57.034Z,23.73
2023-04-16T07:14:23.562Z,22.60
2023-04-16T07:16:50.294Z,22.40
2023-04-16T07:19:16.984Z,19.83
2023-04-16T07:21:43.761Z,22.43
2023-04-16T07:24:14.163Z,22.60
2023-04-16T07:26:41.005Z,21.77
2023-04-16T07:29:07.514Z,22.60
2023-04-16T07:31:34.087Z,22.80
2023-04-16T07:34:00.648Z,22.20
2023-04-16T07:36:28.329Z,21.70
2023-04-16T07:38:54.794Z,21.60
2023-04-16T07:41:21.368Z,21.57
2023-04-16T07:43:47.841Z,22.00
2023-04-16T07:46:14.428Z,23.67
2023-04-16T07:48:41.229Z,23.53
2023-04-16T07:51:07.872Z,21.87
2023-04-16T07:53:34.367Z,23.57
2023-04-16T07:56:00.803Z,23.10
2023-04-16T07:58:27.327Z,23.20
2023-04-16T08:00:53.849Z,23.23
2023-04-16T08:03:20.575Z,22.10
2023-04-16T08:05:47.101Z,23.17
2023-04-16T08:08:13.542Z,23.33
2023-04-16T08:10:40.054Z,24.37
2023-04-16T08:13:06.866Z,23.60
2023-04-16T08:15:33.439Z,24.50
2023-04-16T08:18:00.013Z,23.50
2023-04-16T08:20:26.640Z,24.77
2023-04-16T08:22:56.724Z,23.90
2023-04-16T08:25:24.629Z,24.20
2023-04-16T08:27:51.190Z,23.10
2023-04-16T08:30:17.747Z,23.33
2023-04-16T08:32:44.386Z,20.57
2023-04-16T08:35:10.900Z,23.30
2023-04-16T08:37:37.382Z,22.23
2023-04-16T08:40:04.058Z,22.77
2023-04-16T08:42:34.021Z,22.63
2023-04-16T08:45:08.640Z,22.97
2023-04-16T08:47:37.268Z,23.50
2023-04-16T08:50:05.252Z,22.07
2023-04-16T08:52:32.432Z,23.50
2023-04-16T08:55:12.358Z,22.20
2023-04-16T08:57:44.625Z,21.67
2023-04-16T09:00:12.088Z,23.43
2023-04-16T09:02:39.217Z,21.37
2023-04-16T09:05:07.564Z,22.23
2023-04-16T09:07:35.539Z,21.23
2023-04-16T09:10:03.320Z,21.60
2023-04-16T09:12:30.660Z,23.40
2023-04-16T09:14:59.765Z,21.00
2023-04-16T09:17:27.164Z,22.97
2023-04-16T09:19:54.858Z,20.80
2023-04-16T09:22:21.361Z,21.50
2023-04-16T09:24:47.866Z,23.30
2023-04-16T09:27:14.303Z,21.80
2023-04-16T09:29:41.994Z,20.63
2023-04-16T09:32:10.022Z,21.33
2023-04-16T09:34:55.605Z,22.70
2023-04-16T09:37:22.061Z,19.47
2023-04-16T09:40:02.579Z,20.60
2023-04-16T09:42:31.774Z,21.20
2023-04-16T09:45:00.927Z,22.00
2023-04-16T09:47:41.188Z,20.97
2023-04-16T09:50:13.234Z,21.70
2023-04-16T09:52:39.902Z,20.63
2023-04-16T09:55:06.880Z,21.77
2023-04-16T09:57:33.331Z,20.10
2023-04-16T10:00:11.838Z,20.53
2023-04-16T10:02:42.560Z,21.93
2023-04-16T10:05:09.655Z,20.17
2023-04-16T10:07:37.102Z,21.70
2023-04-16T10:10:04.979Z,20.27
2023-04-16T10:12:32.819Z,20.80
2023-04-16T10:14:59.413Z,21.40
2023-04-16T10:17:26.681Z,21.70
2023-04-16T10:19:54.620Z,21.43
2023-04-16T10:22:21.398Z,21.97
2023-04-16T10:24:49.900Z,20.23
2023-04-16T10:27:17.612Z,18.63
2023-04-16T10:29:44.992Z,19.70
2023-04-16T10:32:12.120Z,20.60
2023-04-16T10:34:39.135Z,21.10
2023-04-16T10:37:05.598Z,21.13
2023-04-16T10:39:37.405Z,23.37
2023-04-16T10:42:09.020Z,22.60
2023-04-16T10:44:36.126Z,22.03
2023-04-16T10:47:02.849Z,20.27
2023-04-16T10:49:29.367Z,20.30
2023-04-16T10:52:13.449Z,18.83
2023-04-16T10:54:41.239Z,19.30
2023-04-16T10:57:16.264Z,18.03
2023-04-16T10:59:44.095Z,18.33
2023-04-16T11:02:18.048Z,20.00
2023-04-16T11:04:46.662Z,18.30
2023-04-16T11:07:19.377Z,17.07
2023-04-16T11:09:53.440Z,17.33
2023-04-16T11:12:32.706Z,18.77
2023-04-16T11:15:00.424Z,19.97
2023-04-16T11:17:36.491Z,18.20
2023-04-16T11:20:05.155Z,19.67
2023-04-16T11:22:46.494Z,19.53
2023-04-16T11:25:13.563Z,18.17
2023-04-16T11:27:40.963Z,19.30
2023-04-16T11:30:09.692Z,17.80
2023-04-16T11:32:38.525Z,18.70
2023-04-16T11:35:19.002Z,18.67
2023-04-16T11:37:46.756Z,17.10
2023-04-16T11:40:13.495Z,16.80
2023-04-16T11:42:42.088Z,17.23
2023-04-16T11:45:10.980Z,16.90
2023-04-16T11:47:50.283Z,18.30
2023-04-16T11:50:19.383Z,16.17
2023-04-16T11:52:46.933Z,16.27
2023-04-16T11:55:13.492Z,16.27
2023-04-16T11:57:40.246Z,16.77
2023-04-16T12:00:10.982Z,17.73
2023-04-16T12:02:41.544Z,17.20
2023-04-16T12:05:32.730Z,16.63
2023-04-16T12:08:01.219Z,17.67
2023-04-16T12:10:28.580Z,15.70
2023-04-16T12:12:55.953Z,16.47
2023-04-16T12:15:22.411Z,14.47
2023-04-16T12:17:50.447Z,13.47
2023-04-16T12:20:16.967Z,12.77
2023-04-16T12:22:49.423Z,13.03
2023-04-16T12:25:18.000Z,13.27
2023-04-16T12:27:54.018Z,15.87
2023-04-16T12:30:22.959Z,13.40
2023-04-16T12:32:51.628Z,13.20
2023-04-16T12:35:31.641Z,15.23
2023-04-16T12:37:58.227Z,15.20
2023-04-16T12:40:24.761Z,15.00
2023-04-16T12:42:51.289Z,13.53
2023-04-16T12:45:17.818Z,14.00
2023-04-16T12:47:44.411Z,13.57
2023-04-16T12:50:11.088Z,13.37
2023-04-16T12:52:37.613Z,13.57
2023-04-16T12:55:04.572Z,13.60
2023-04-16T12:57:31.091Z,12.90
2023-04-16T12:59:58.413Z,13.40
2023-04-16T13:02:25.710Z,13.20
2023-04-16T13:04:53.264Z,14.00
2023-04-16T13:07:19.891Z,15.03
2023-04-16T13:09:46.588Z,12.90
2023-04-16T13:12:13.105Z,12.80
2023-04-16T13:14:39.702Z,13.57
2023-04-16T13:17:06.123Z,13.23
2023-04-16T13:19:32.606Z,12.83
2023-04-16T13:21:59.280Z,12.40
2023-04-16T13:24:25.821Z,13.90
2023-04-16T13:26:52.502Z,13.57
2023-04-16T13:29:19.731Z,13.00
2023-04-16T13:31:46.979Z,12.83
2023-04-16T13:34:13.414Z,12.83
2023-04-16T13:36:40.291Z,12.57
2023-04-16T13:39:11.474Z,12.70
2023-04-16T13:41:38.756Z,12.63
2023-04-16T13:44:05.659Z,12.43
2023-04-16T13:46:32.391Z,11.93
2023-04-16T13:48:58.975Z,13.57
2023-04-16T13:51:25.455Z,12.70
2023-04-16T13:53:51.853Z,11.90
2023-04-16T13:56:18.317Z,12.10
2023-04-16T13:58:44.756Z,12.60
2023-04-16T14:01:11.476Z,13.33
2023-04-16T14:03:38.947Z,12.90
2023-04-16T14:06:05.588Z,13.57
2023-04-16T14:08:32.137Z,13.23
2023-04-16T14:10:58.897Z,13.30
2023-04-16T14:13:25.551Z,13.43
2023-04-16T14:15:55.691Z,13.70
2023-04-16T14:18:22.218Z,13.93
2023-04-16T14:20:48.642Z,14.50
2023-04-16T14:23:15.131Z,14.50
2023-04-16T14:25:41.660Z,13.60
2023-04-16T14:28:09.230Z,14.10
2023-04-16T14:30:35.793Z,13.70
2023-04-16T14:33:04.819Z,13.13
2023-04-16T14:35:31.321Z,14.20
2023-04-16T14:37:58.340Z,13.53
2023-04-16T14:40:24.832Z,13.50
2023-04-16T14:42:51.362Z,13.37
2023-04-16T14:45:17.766Z,13.30
2023-04-16T14:47:47.752Z,12.00
2023-04-16T14:50:14.852Z,14.27
2023-04-16T14:52:41.702Z,14.50
2023-04-16T14:55:08.258Z,13.67
2023-04-16T14:57:35.277Z,12.20
2023-04-16T15:00:02.327Z,13.80
2023-04-16T15:02:29.006Z,13.67
2023-04-16T15:04:55.584Z,13.17
2023-04-16T15:07:22.234Z,12.67
2023-04-16T15:09:48.690Z,12.63
2023-04-16T15:12:16.231Z,12.87
2023-04-16T15:14:43.940Z,12.63
2023-04-16T15:17:10.581Z,12.87
2023-04-16T15:19:37.227Z,12.53
2023-04-16T15:22:03.659Z,12.03
2023-04-16T15:24:30.335Z,12.10
2023-04-16T15:26:57.329Z,10.83
2023-04-16T15:29:23.791Z,10.33
2023-04-16T15:31:50.271Z,11.10
2023-04-16T15:34:16.776Z,11.77
2023-04-16T15:36:43.315Z,10.07
2023-04-16T15:39:10.652Z,9.97
2023-04-16T15:41:46.954Z,10.67
2023-04-16T15:44:23.935Z,10.97
2023-04-16T15:46:50.550Z,10.27
2023-04-16T15:49:17.155Z,8.77
2023-04-16T17:26:02.597Z,17.23
2023-04-16T17:28:29.071Z,16.73
2023-04-16T17:30:56.872Z,16.27
2023-04-16T17:33:23.380Z,16.07
2023-04-16T17:35:49.885Z,18.20
2023-04-16T17:38:16.325Z,17.93
2023-04-16T17:40:42.942Z,17.00
2023-04-16T18:44:20.857Z,22.37
2023-04-16T18:46:47.439Z,22.60
2023-04-16T18:49:14.078Z,22.27
2023-04-16T18:51:41.992Z,22.83
2023-04-16T18:54:08.466Z,21.83
2023-04-16T18:56:34.930Z,23.00
2023-04-16T18:59:01.745Z,23.03
2023-04-16T19:01:28.279Z,21.53
2023-04-16T19:03:54.867Z,21.90
2023-04-16T19:06:21.416Z,21.13
2023-04-16T19:08:47.858Z,22.13
2023-04-16T19:11:14.308Z,21.60
2023-04-16T19:13:40.778Z,22.37
2023-04-16T19:16:11.378Z,20.93
2023-04-16T19:18:39.002Z,20.80
2023-04-16T19:21:06.905Z,20.40
2023-04-16T19:23:33.360Z,19.97
2023-04-16T19:26:01.397Z,20.13
2023-04-16T19:28:28.319Z,20.00
2023-04-16T19:30:55.959Z,19.10
2023-04-16T19:33:22.490Z,18.87
2023-04-16T19:35:49.015Z,20.00
2023-04-16T19:38:15.583Z,18.10
2023-04-16T19:40:46.671Z,18.20
2023-04-16T19:43:13.423Z,18.93
2023-04-16T19:45:47.396Z,18.90
2023-04-16T19:48:14.572Z,17.67
2023-04-16T19:50:42.219Z,18.50
2023-04-16T19:53:09.037Z,17.20
2023-04-16T19:55:35.762Z,16.77
2023-04-16T19:58:06.131Z,16.37
2023-04-16T20:00:40.678Z,17.10
2023-04-16T20:03:07.582Z,16.80
2023-04-16T20:05:34.114Z,17.40
2023-04-16T20:08:00.839Z,16.20
2023-04-16T20:10:27.760Z,17.10
2023-04-16T20:12:54.233Z,18.57
2023-04-16T20:15:20.934Z,17.07
2023-04-16T20:17:47.516Z,17.00
2023-04-16T20:20:15.888Z,17.70
2023-04-16T20:22:42.975Z,17.70
2023-04-16T20:25:09.666Z,20.77
2023-04-16T20:27:36.179Z,17.10
2023-04-16T20:30:03.631Z,17.67
2023-04-16T20:32:30.142Z,15.70
2023-04-16T20:34:56.711Z,17.30
2023-04-16T20:37:23.214Z,18.00
2023-04-16T20:39:53.987Z,17.40
2023-04-16T20:42:21.972Z,18.17
2023-04-16T20:44:50.581Z,17.77
2023-04-16T20:47:17.242Z,17.80
2023-04-16T20:49:47.279Z,17.60
2023-04-16T20:52:14.746Z,18.03
2023-04-16T20:54:41.555Z,18.20
2023-04-16T20:57:08.196Z,18.23
2023-04-16T20:59:34.795Z,18.30
2023-04-16T21:02:01.608Z,18.27
2023-04-16T21:04:28.274Z,18.60
2023-04-16T21:06:54.996Z,18.93
2023-04-16T21:09:21.880Z,18.60
2023-04-16T21:11:48.456Z,17.90
2023-04-16T21:14:14.887Z,19.40
2023-04-16T21:16:41.359Z,19.53
2023-04-16T21:19:08.694Z,19.47
2023-04-16T21:21:35.530Z,19.87
2023-04-16T21:24:02.150Z,18.30
2023-04-16T21:26:28.662Z,19.83
2023-04-16T21:28:55.442Z,20.27
2023-04-16T21:31:21.975Z,19.73
2023-04-16T21:33:48.623Z,22.47
2023-04-16T21:36:15.471Z,21.03
2023-04-16T21:38:41.990Z,19.73
2023-04-16T21:41:08.414Z,20.83
2023-04-16T21:43:34.836Z,22.30
2023-04-16T21:46:01.351Z,20.30
2023-04-16T21:48:28.571Z,21.03
2023-04-16T21:51:00.989Z,22.00
2023-04-16T21:53:31.934Z,21.20
2023-04-16T21:55:58.528Z,20.20
2023-04-16T21:58:27.964Z,20.90
2023-04-16T22:00:54.531Z,21.03
2023-04-16T22:03:28.140Z,24.10
2023-04-16T22:06:00.922Z,21.87
2023-04-16T22:08:31.377Z,23.50
2023-04-16T22:10:59.156Z,23.03
2023-04-16T22:13:26.274Z,23.37
2023-04-16T22:15:53.232Z,24.40
2023-04-16T22:18:19.683Z,23.03
2023-04-16T22:20:47.178Z,23.40
2023-04-16T22:23:14.158Z,22.57
2023-04-16T22:25:40.622Z,22.80
2023-04-16T22:28:07.150Z,23.70
2023-04-16T22:30:33.637Z,21.90
2023-04-16T22:33:00.901Z,24.70
2023-04-16T22:35:27.506Z,24.37
2023-04-16T22:37:53.946Z,25.00
2023-04-16T22:40:20.462Z,24.57
2023-04-16T22:42:47.708Z,28.13
2023-04-16T22:45:14.152Z,26.23
2023-04-16T22:47:41.556Z,23.43
2023-04-16T22:50:08.565Z,25.27
2023-04-16T22:52:35.012Z,25.37
2023-04-16T22:55:01.512Z,25.93
2023-04-16T22:57:27.936Z,24.87
2023-04-16T22:59:54.580Z,26.20
2023-04-16T23:02:21.511Z,24.60
2023-04-16T23:04:48.177Z,24.90
2023-04-16T23:07:15.662Z,26.57
2023-04-16T23:09:42.629Z,23.63
2023-04-16T23:12:09.124Z,24.67
2023-04-16T23:14:36.876Z,25.70
2023-04-16T23:17:03.514Z,26.97
2023-04-16T23:19:31.125Z,26.10
2023-04-16T23:21:57.898Z,25.70
2023-04-16T23:24:24.441Z,26.57
2023-04-16T23:26:52.395Z,27.50
2023-04-16T23:29:19.436Z,26.37
2023-04-16T23:31:45.995Z,26.93
2023-04-16T23:34:12.465Z,28.70
2023-04-16T23:36:39.323Z,25.87
2023-04-16T23:39:05.744Z,27.07
2023-04-16T23:41:32.179Z,27.63
2023-04-16T23:43:59.006Z,28.07
2023-04-16T23:46:26.190Z,28.43
2023-04-16T23:48:52.729Z,28.67
2023-04-16T23:51:19.211Z,27.50
2023-04-16T23:53:45.728Z,27.77
2023-04-16T23:56:12.173Z,28.63
2023-04-16T23:58:38.830Z,28.37
